Time;durP1;ratioP1;P1;durP2;ratioP2;P2;SDS_P1;SDS_P2;PMS_P1;PMS_P2;Temp;Humidity;BMP_temperature;BMP_pressure;BME280_temperature;BME280_humidity;BME280_pressure;Samples;Min_cycle;Max_cycle;Signal;HPM_P1;HPM_P2
2022/12/19 00:01:17;;;;;;;28.13;17.02;;;;;;;0.77;53.68;95530.53;4994959;28;20496;-73
2022/12/19 00:03:48;;;;;;;24.25;15.18;;;;;;;0.77;53.69;95525.28;4996395;28;20042;-74
2022/12/19 00:06:15;;;;;;;27.45;16.95;;;;;;;0.91;53.83;95528.63;4995164;28;20026;-73
2022/12/19 00:08:42;;;;;;;26.27;16.02;;;;;;;0.87;53.73;95527.47;4995394;28;20121;-73
2022/12/19 00:11:09;;;;;;;28.17;16.33;;;;;;;0.84;53.82;95534.94;4993839;28;20037;-74
2022/12/19 00:13:34;;;;;;;27.20;16.70;;;;;;;0.92;54.02;95534.69;4996926;28;20045;-74
2022/12/19 00:16:02;;;;;;;23.30;14.88;;;;;;;1.00;53.72;95535.22;4994726;28;20438;-75
2022/12/19 00:18:28;;;;;;;26.77;15.23;;;;;;;1.09;53.49;95533.94;4996896;28;20059;-75
2022/12/19 00:20:58;;;;;;;27.30;16.27;;;;;;;0.77;54.06;95529.72;4987613;28;20033;-73
2022/12/19 00:23:23;;;;;;;23.10;14.57;;;;;;;1.08;53.66;95539.44;4995431;28;20124;-75
2022/12/19 00:25:49;;;;;;;28.30;16.08;;;;;;;0.95;53.60;95524.56;4996399;28;20542;-74
2022/12/19 00:28:14;;;;;;;25.67;16.27;;;;;;;1.04;53.85;95525.13;4995148;28;20045;-74
2022/12/19 00:30:40;;;;;;;28.73;16.83;;;;;;;1.10;53.67;95529.50;4996500;28;20034;-74
2022/12/19 00:33:05;;;;;;;23.30;15.13;;;;;;;0.78;54.37;95534.75;4994188;28;20080;-73
2022/12/19 00:35:30;;;;;;;26.73;15.15;;;;;;;0.87;54.16;95526.66;4996404;28;20604;-73
2022/12/19 00:37:56;;;;;;;30.48;17.33;;;;;;;0.92;54.13;95521.59;4992141;28;20038;-75
2022/12/19 00:40:22;;;;;;;26.67;15.23;;;;;;;0.99;54.08;95527.56;4994179;28;20045;-74
2022/12/19 00:42:47;;;;;;;24.50;14.95;;;;;;;1.02;54.43;95542.88;4992913;28;20046;-77
2022/12/19 00:45:13;;;;;;;24.52;16.10;;;;;;;0.91;54.61;95551.41;4993553;28;20021;-77
2022/12/19 00:47:38;;;;;;;29.30;16.58;;;;;;;1.17;54.34;95551.25;4994889;28;20431;-76
2022/12/19 00:50:04;;;;;;;28.80;16.55;;;;;;;1.11;54.32;95539.78;4994198;28;20034;-72
2022/12/19 00:52:29;;;;;;;25.80;16.67;;;;;;;1.21;53.88;95539.31;4995665;28;20033;-75
2022/12/19 00:54:54;;;;;;;28.20;17.13;;;;;;;1.32;53.60;95541.28;4991506;28;20041;-72
2022/12/19 00:57:20;;;;;;;27.65;16.67;;;;;;;1.38;53.45;95542.22;4993919;28;20032;-73
2022/12/19 00:59:45;;;;;;;26.83;15.65;;;;;;;1.44;53.42;95547.41;4992306;28;20109;-78
2022/12/19 01:02:10;;;;;;;32.38;17.88;;;;;;;1.48;53.35;95553.03;4993942;28;20029;-74
2022/12/19 01:04:36;;;;;;;26.13;15.88;;;;;;;1.31;53.85;95557.19;4992239;28;20034;-76
2022/12/19 01:07:04;;;;;;;27.17;17.15;;;;;;;1.37;53.79;95554.53;4992387;28;20484;-72
2022/12/19 01:09:30;;;;;;;23.95;15.90;;;;;;;1.34;53.76;95557.56;4993975;28;20041;-74
2022/12/19 01:14:40;;;;;;;30.92;20.65;;;;;;;1.38;53.72;95547.44;4994924;28;20060;-72
2022/12/19 01:17:05;;;;;;;26.95;16.05;;;;;;;1.24;53.96;95541.50;4993143;28;20033;-74
2022/12/19 01:19:30;;;;;;;26.02;17.70;;;;;;;1.19;54.01;95554.44;4992143;28;20480;-74
2022/12/19 01:21:56;;;;;;;28.92;16.20;;;;;;;1.23;53.96;95558.25;4995813;28;20041;-76
2022/12/19 01:24:21;;;;;;;25.55;16.25;;;;;;;1.26;54.06;95570.94;4993270;28;20021;-76
2022/12/19 01:26:46;;;;;;;29.02;16.27;;;;;;;1.44;53.71;95568.38;5008929;28;20022;-76
2022/12/19 01:29:12;;;;;;;26.92;17.88;;;;;;;1.12;54.30;95564.19;4995304;28;20064;-73
2022/12/19 01:31:37;;;;;;;27.50;16.27;;;;;;;1.03;54.58;95568.88;4994534;28;20578;-75
2022/12/19 01:34:02;;;;;;;31.55;17.33;;;;;;;1.15;54.31;95569.00;4993657;28;20038;-76
2022/12/19 01:36:28;;;;;;;32.40;17.50;;;;;;;1.09;54.75;95560.16;4994299;28;20040;-75
2022/12/19 01:38:55;;;;;;;31.90;16.55;;;;;;;0.99;54.82;95566.88;4993023;28;20830;-74
2022/12/19 01:41:21;;;;;;;28.83;17.27;;;;;;;1.04;54.56;95548.69;4992785;28;20571;-76
2022/12/19 01:43:57;;;;;;;29.33;16.08;;;;;;;1.02;54.72;95548.94;4992954;28;20038;-74
2022/12/19 01:46:27;;;;;;;25.90;16.15;;;;;;;1.08;54.58;95547.28;4994190;28;20034;-73
2022/12/19 01:48:53;;;;;;;25.20;15.60;;;;;;;1.02;54.97;95553.38;4993992;28;20080;-73
2022/12/19 01:51:23;;;;;;;28.42;16.45;;;;;;;1.13;54.67;95556.09;4992939;28;20038;-75
2022/12/19 01:53:53;;;;;;;28.48;16.38;;;;;;;0.76;55.27;95530.72;4994275;28;20345;-73
2022/12/19 01:56:23;;;;;;;27.92;16.50;;;;;;;0.98;55.12;95552.19;5008329;28;20030;-76
2022/12/19 01:58:52;;;;;;;26.75;15.85;;;;;;;1.04;54.68;95522.50;4993950;28;20080;-72
2022/12/19 02:01:18;;;;;;;26.77;17.15;;;;;;;1.16;54.67;95553.06;4993726;28;20030;-73
2022/12/19 02:03:44;;;;;;;28.13;17.88;;;;;;;1.18;54.80;95555.50;4993347;28;20487;-73
2022/12/19 02:06:12;;;;;;;26.63;16.27;;;;;;;1.01;54.79;95538.66;4992396;28;20662;-73
2022/12/19 02:08:40;;;;;;;31.80;17.52;;;;;;;0.94;54.38;95537.88;5009036;28;20026;-76
2022/12/19 02:11:05;;;;;;;27.38;16.65;;;;;;;1.12;54.63;95540.59;5007272;28;20033;-74
2022/12/19 02:13:31;;;;;;;30.63;18.10;;;;;;;1.14;55.04;95544.59;4987440;28;20400;-76
2022/12/19 02:16:23;;;;;;;28.20;16.73;;;;;;;1.17;54.98;95551.25;4989782;28;20038;-75
2022/12/19 02:19:01;;;;;;;33.15;17.98;;;;;;;1.16;54.98;95539.16;4988037;28;20062;-75
2022/12/19 02:21:41;;;;;;;31.75;19.10;;;;;;;1.31;54.82;95551.97;4993536;28;20538;-76
2022/12/19 02:24:07;;;;;;;30.63;17.90;;;;;;;1.20;55.03;95545.56;4993427;28;20587;-76
2022/12/19 02:26:59;;;;;;;32.78;17.40;;;;;;;1.19;54.92;95554.44;4972878;28;20053;-75
2022/12/19 02:29:55;;;;;;;29.08;17.75;;;;;;;1.21;54.57;95555.84;4975887;28;20066;-75
2022/12/19 02:32:30;;;;;;;29.50;17.80;;;;;;;1.27;54.37;95541.09;4988612;28;20025;-76
2022/12/19 02:35:01;;;;;;;;;;;;;;;1.37;54.28;95562.41;4980136;28;20030;-75
2022/12/19 02:37:31;;;;;;;27.92;17.85;;;;;;;1.10;54.89;95561.78;4984804;28;19917;-77
2022/12/19 02:40:13;;;;;;;29.05;16.17;;;;;;;1.45;54.70;95572.63;4994214;28;20903;-76
2022/12/19 02:42:45;;;;;;;32.17;17.98;;;;;;;1.35;54.20;95548.69;4993183;28;20042;-75
2022/12/19 02:45:14;;;;;;;27.58;16.98;;;;;;;1.35;54.13;95548.69;5010058;28;20030;-75
2022/12/19 02:47:40;;;;;;;30.35;17.85;;;;;;;1.33;54.47;95565.63;4991608;28;20434;-74
2022/12/19 02:50:07;;;;;;;28.23;16.15;;;;;;;1.39;54.48;95549.06;4990424;28;20034;-75
2022/12/19 02:52:32;;;;;;;28.05;16.55;;;;;;;1.50;54.50;95561.50;4988587;28;20038;-75
2022/12/19 02:55:06;;;;;;;30.55;17.08;;;;;;;1.29;54.87;95548.72;4993288;28;20045;-76
2022/12/19 02:58:23;;;;;;;29.13;17.00;;;;;;;1.42;54.16;95551.28;4991581;28;20579;-73
2022/12/19 03:01:03;;;;;;;31.05;16.75;;;;;;;1.30;54.34;95530.19;4974848;28;20937;-73
2022/12/19 03:03:28;;;;;;;29.77;17.90;;;;;;;1.40;54.35;95556.72;4993497;28;20496;-75
2022/12/19 03:06:08;;;;;;;29.23;17.52;;;;;;;1.35;53.73;95532.16;4992407;28;20033;-74
2022/12/19 03:08:47;;;;;;;33.83;17.67;;;;;;;1.38;53.93;95537.78;4992833;28;20038;-74
2022/12/19 03:11:14;;;;;;;28.60;18.08;;;;;;;1.35;54.31;95538.22;5005201;28;20030;-75
2022/12/19 03:13:58;;;;;;;32.03;17.77;;;;;;;1.36;54.05;95539.81;4992805;28;20681;-75
2022/12/19 03:16:24;;;;;;;25.55;16.50;;;;;;;1.21;54.46;95532.28;4992488;28;20041;-74
2022/12/19 03:18:53;;;;;;;29.55;18.00;;;;;;;1.15;54.23;95532.31;4991048;28;20038;-74
2022/12/19 03:21:37;;;;;;;31.75;18.17;;;;;;;1.14;54.39;95509.72;4989368;28;20034;-76
2022/12/19 03:24:04;;;;;;;30.42;17.73;;;;;;;1.36;54.16;95539.81;4991325;28;20074;-77
2022/12/19 03:26:59;;;;;;;32.13;18.85;;;;;;;1.26;54.29;95539.50;4993033;28;20552;-74
2022/12/19 03:29:31;;;;;;;29.70;17.70;;;;;;;1.30;54.10;95535.44;4958330;28;20042;-75
2022/12/19 03:31:59;;;;;;;28.92;17.80;;;;;;;1.24;54.20;95552.81;4986866;28;22186;-75
2022/12/19 03:34:42;;;;;;;30.70;17.65;;;;;;;1.26;54.52;95536.88;4992109;28;20680;-75
2022/12/19 03:37:13;;;;;;;31.35;18.05;;;;;;;1.39;54.37;95555.13;4988063;28;20128;-76
2022/12/19 03:39:41;;;;;;;33.97;18.13;;;;;;;1.47;54.37;95569.81;4992090;28;20045;-76
2022/12/19 03:44:55;;;;;;;28.73;17.63;;;;;;;1.23;54.58;95566.91;4993555;28;20555;-74
2022/12/19 03:47:36;;;;;;;30.98;19.17;;;;;;;1.25;54.44;95553.59;4990049;28;20038;-76
2022/12/19 03:50:02;;;;;;;28.40;18.05;;;;;;;1.36;53.84;95560.78;5005928;28;20108;-75
2022/12/19 03:52:30;;;;;;;30.08;18.55;;;;;;;1.36;54.16;95560.78;4992666;28;20041;-74
2022/12/19 03:55:05;;;;;;;27.70;17.83;;;;;;;1.17;54.17;95566.97;4991650;28;20041;-74
2022/12/19 03:57:43;;;;;;;30.83;18.05;;;;;;;1.20;54.41;95563.94;4993036;28;20301;-74
2022/12/19 04:00:12;;;;;;;32.88;17.80;;;;;;;1.12;54.58;95561.56;4990095;28;20034;-76
2022/12/19 04:02:42;;;;;;;31.52;18.83;;;;;;;1.03;53.92;95541.88;4991866;28;20033;-76
2022/12/19 04:05:11;;;;;;;31.27;18.75;;;;;;;0.84;54.74;95566.38;4990071;28;20038;-74
2022/12/19 04:07:37;;;;;;;27.75;16.65;;;;;;;0.93;54.47;95591.31;4992549;28;20512;-74
2022/12/19 04:10:06;;;;;;;30.80;18.45;;;;;;;0.93;54.36;95576.41;4992812;28;20677;-74
2022/12/19 04:12:39;;;;;;;30.52;18.25;;;;;;;0.80;54.58;95569.41;4990135;28;20396;-75
2022/12/19 04:15:06;;;;;;;27.95;16.63;;;;;;;0.71;54.93;95578.50;4991944;28;20111;-74
2022/12/19 04:17:53;;;;;;;30.60;17.27;;;;;;;0.91;54.68;95598.56;4989956;28;20548;-76
2022/12/19 04:20:21;;;;;;;28.25;17.58;;;;;;;0.99;54.17;95600.94;4990770;28;20596;-75
2022/12/19 04:23:01;;;;;;;24.65;16.23;;;;;;;0.90;53.95;95599.56;4989852;28;20054;-76
2022/12/19 04:25:35;;;;;;;29.45;18.00;;;;;;;1.06;53.65;95607.75;4988897;28;20424;-75
2022/12/19 04:28:30;;;;;;;28.88;16.75;;;;;;;0.88;54.29;95606.84;4992480;28;20037;-76
2022/12/19 04:30:56;;;;;;;25.42;16.98;;;;;;;0.77;54.25;95585.53;4977681;28;20042;-74
2022/12/19 04:33:21;;;;;;;31.13;17.55;;;;;;;0.87;54.75;95597.38;4995179;28;20057;-77
2022/12/19 04:35:47;;;;;;;30.00;18.60;;;;;;;0.67;54.77;95587.78;4994767;28;20116;-74
2022/12/19 04:38:12;;;;;;;30.30;17.85;;;;;;;0.79;54.63;95582.69;4995254;28;20033;-75
2022/12/19 04:40:38;;;;;;;32.58;17.98;;;;;;;0.87;54.58;95592.13;4992900;28;20623;-75
2022/12/19 04:43:03;;;;;;;28.10;16.83;;;;;;;0.80;54.52;95572.00;4996799;28;20520;-74
2022/12/19 04:45:29;;;;;;;26.67;16.33;;;;;;;0.89;53.94;95595.38;4994652;28;20132;-75
2022/12/19 04:47:54;;;;;;;30.83;18.38;;;;;;;0.81;54.06;95583.28;4996066;28;20025;-74
2022/12/19 04:50:19;;;;;;;28.65;17.35;;;;;;;0.75;54.64;95592.78;4991883;28;21206;-74
2022/12/19 04:52:45;;;;;;;29.75;18.23;;;;;;;0.80;54.34;95608.69;4995118;28;20160;-75
2022/12/19 04:55:10;;;;;;;28.25;16.67;;;;;;;0.83;54.38;95606.66;4994288;28;20030;-75
2022/12/19 04:57:36;;;;;;;30.05;16.35;;;;;;;0.77;54.33;95606.50;4994934;28;20578;-75
2022/12/19 05:00:03;;;;;;;29.38;17.27;;;;;;;0.86;54.34;95608.88;4993680;28;20038;-77
2022/12/19 05:02:29;;;;;;;28.60;17.90;;;;;;;0.90;54.19;95608.25;4990630;28;20034;-75
2022/12/19 05:04:54;;;;;;;32.20;18.20;;;;;;;0.78;54.08;95584.53;4993527;28;20100;-76
2022/12/19 05:07:20;;;;;;;29.48;17.55;;;;;;;1.03;54.06;95615.25;4993567;28;20080;-76
2022/12/19 05:09:45;;;;;;;32.65;17.73;;;;;;;0.80;54.10;95606.06;4994375;28;20045;-76
2022/12/19 05:12:10;;;;;;;29.63;17.75;;;;;;;0.69;54.14;95614.56;4995152;28;20418;-74
2022/12/19 05:14:36;;;;;;;30.80;17.95;;;;;;;0.90;53.99;95610.84;4994513;28;20460;-75
2022/12/19 05:17:04;;;;;;;30.00;17.13;;;;;;;0.79;54.44;95611.50;4994660;28;20125;-77
2022/12/19 05:19:30;;;;;;;34.90;19.35;;;;;;;0.69;54.49;95596.22;4994568;28;20117;-77
2022/12/19 05:21:55;;;;;;;33.35;17.42;;;;;;;0.91;54.02;95603.81;4993305;28;20038;-76
2022/12/19 05:24:21;;;;;;;29.88;18.50;;;;;;;0.76;53.93;95593.59;4992632;28;20036;-75
2022/12/19 05:26:47;;;;;;;33.35;17.77;;;;;;;0.86;54.13;95619.34;4993939;28;20022;-76
2022/12/19 05:29:13;;;;;;;28.45;17.33;;;;;;;0.94;54.04;95616.47;4990364;28;20049;-78
2022/12/19 05:31:38;;;;;;;32.67;18.75;;;;;;;0.88;54.06;95619.94;4991269;28;20034;-73
2022/12/19 05:34:04;;;;;;;38.95;23.73;;;;;;;1.04;53.87;95608.97;4991780;28;20407;-73
2022/12/19 05:36:29;;;;;;;32.83;18.65;;;;;;;0.91;53.88;95601.19;4994374;28;20113;-75
2022/12/19 05:38:54;;;;;;;32.53;20.40;;;;;;;1.07;53.56;95619.84;4995381;28;20025;-75
2022/12/19 05:41:20;;;;;;;68.20;43.38;;;;;;;0.99;53.71;95617.47;4991272;28;20052;-76
2022/12/19 05:43:50;;;;;;;74.07;46.17;;;;;;;1.19;53.34;95628.66;4992853;28;20392;-74
2022/12/19 05:46:16;;;;;;;52.47;31.25;;;;;;;1.09;53.65;95611.75;4992905;28;20034;-75
2022/12/19 05:48:41;;;;;;;36.08;21.40;;;;;;;1.04;53.56;95614.22;4990536;28;20026;-76
2022/12/19 05:51:07;;;;;;;51.30;36.20;;;;;;;0.85;54.00;95602.00;4992976;28;20018;-75
2022/12/19 05:53:37;;;;;;;36.10;21.85;;;;;;;1.07;53.71;95622.47;4994381;28;20077;-76
2022/12/19 05:56:10;;;;;;;34.60;21.75;;;;;;;1.03;53.90;95623.91;4992133;28;20164;-75
2022/12/19 05:58:37;;;;;;;31.83;19.08;;;;;;;0.95;54.11;95631.19;4993966;28;20061;-75
2022/12/19 06:01:08;;;;;;;41.35;18.75;;;;;;;1.03;53.41;95625.72;4993578;28;20445;-74
2022/12/19 06:03:33;;;;;;;33.03;19.58;;;;;;;0.95;53.63;95636.44;4990533;28;20114;-75
2022/12/19 06:06:03;;;;;;;32.50;19.20;;;;;;;1.01;53.84;95632.97;4986219;28;20025;-76
2022/12/19 06:08:29;;;;;;;29.23;17.67;;;;;;;1.00;53.90;95634.00;4999565;28;20408;-76
2022/12/19 06:10:59;;;;;;;33.25;20.70;;;;;;;0.88;53.78;95615.53;4990690;28;20087;-76
2022/12/19 06:13:24;;;;;;;32.72;19.48;;;;;;;1.07;53.60;95634.78;4999958;28;20038;-77
2022/12/19 06:15:49;;;;;;;34.85;19.17;;;;;;;1.09;53.24;95623.06;4978973;28;20041;-74
2022/12/19 06:18:15;;;;;;;32.53;19.80;;;;;;;0.85;53.55;95617.72;4982294;28;20121;-76
2022/12/19 06:20:40;;;;;;;33.38;20.73;;;;;;;1.01;53.63;95630.34;4984691;28;20053;-75
2022/12/19 06:23:06;;;;;;;36.38;20.63;;;;;;;1.09;53.29;95637.97;4986756;28;20049;-77
2022/12/19 06:25:31;;;;;;;37.63;19.42;;;;;;;0.98;53.29;95626.34;4984048;28;20441;-76
2022/12/19 06:27:56;;;;;;;37.03;20.02;;;;;;;1.09;53.51;95648.44;4989143;28;20046;-75
2022/12/19 06:30:22;;;;;;;34.75;19.63;;;;;;;1.17;53.56;95641.19;4990991;28;20476;-75
2022/12/19 06:32:47;;;;;;;34.63;20.10;;;;;;;0.92;54.11;95642.09;4992697;28;20463;-75
2022/12/19 06:35:13;;;;;;;34.80;18.92;;;;;;;0.09;55.63;95643.72;4990236;28;20136;-74
2022/12/19 06:37:38;;;;;;;35.35;19.65;;;;;;;0.11;56.40;95634.66;4991715;28;20069;-76
2022/12/19 06:40:04;;;;;;;34.60;20.92;;;;;;;-0.15;56.33;95629.47;4991355;28;20117;-75
2022/12/19 06:42:29;;;;;;;38.40;20.42;;;;;;;-0.03;56.50;95650.56;4988930;28;20064;-75
2022/12/19 06:44:55;;;;;;;36.05;21.33;;;;;;;-0.05;56.60;95658.63;4991558;28;20377;-74
2022/12/19 06:47:22;;;;;;;34.38;21.17;;;;;;;0.12;56.60;95656.41;4988673;28;20030;-74
2022/12/19 06:49:48;;;;;;;39.13;22.73;;;;;;;-0.32;57.79;95649.16;4989711;28;20040;-74
2022/12/19 06:52:14;;;;;;;39.55;24.45;;;;;;;-0.16;57.91;95659.25;4986642;28;20580;-75
2022/12/19 06:54:40;;;;;;;37.63;22.90;;;;;;;-0.69;58.71;95643.50;4990861;28;20512;-74
2022/12/19 06:57:06;;;;;;;52.28;22.50;;;;;;;-1.11;59.46;95657.63;4986705;28;20187;-75
2022/12/19 06:59:32;;;;;;;35.58;21.27;;;;;;;-1.00;60.25;95688.44;4992286;28;20057;-75
2022/12/19 07:02:10;;;;;;;36.28;21.63;;;;;;;-0.44;59.02;95669.88;4988711;28;20153;-75
2022/12/19 07:04:40;;;;;;;35.42;21.00;;;;;;;-0.29;58.27;95667.09;4990258;28;20042;-75
2022/12/19 07:07:06;;;;;;;34.08;20.27;;;;;;;-0.56;58.19;95653.16;4990031;28;20500;-74
2022/12/19 07:09:32;;;;;;;33.55;18.85;;;;;;;-0.12;57.23;95681.38;4990070;28;20077;-73
2022/12/19 07:11:58;;;;;;;37.15;19.77;;;;;;;-0.35;57.54;95663.47;4990989;28;20021;-75
2022/12/19 07:14:23;;;;;;;39.90;23.05;;;;;;;-0.22;58.09;95691.41;4991508;28;20282;-74
2022/12/19 07:16:51;;;;;;;34.03;20.05;;;;;;;0.04;57.51;95693.25;5009403;28;20068;-74
2022/12/19 07:19:18;;;;;;;38.85;23.00;;;;;;;-0.11;57.73;95694.25;4990993;28;20360;-76
2022/12/19 07:21:43;;;;;;;42.78;25.50;;;;;;;-0.40;58.53;95688.59;4989515;28;20528;-74
2022/12/19 07:24:10;;;;;;;37.47;22.63;;;;;;;-0.47;59.02;95693.78;4987448;28;20034;-75
2022/12/19 07:26:36;;;;;;;40.35;21.77;;;;;;;-0.14;58.18;95692.00;4984620;28;21063;-75
2022/12/19 07:29:02;;;;;;;39.58;24.98;;;;;;;-0.26;58.06;95677.94;4982293;28;20491;-74
2022/12/19 07:31:27;;;;;;;41.78;23.73;;;;;;;-0.36;58.81;95669.69;4979619;28;20344;-75
2022/12/19 07:33:53;;;;;;;39.83;21.90;;;;;;;-0.51;59.13;95682.13;4978700;28;20064;-74
2022/12/19 07:36:18;;;;;;;43.85;22.73;;;;;;;-0.22;58.65;95681.75;4984355;28;20072;-74
2022/12/19 07:38:44;;;;;;;36.78;21.20;;;;;;;-0.34;58.66;95693.84;4983625;28;20777;-73
2022/12/19 07:41:09;;;;;;;42.17;22.23;;;;;;;-0.67;60.03;95703.38;4984917;28;20045;-75
2022/12/19 07:43:35;;;;;;;37.63;22.15;;;;;;;-0.45;59.43;95683.97;4986995;28;20500;-74
2022/12/19 07:46:00;;;;;;;39.45;22.52;;;;;;;-0.21;58.99;95704.31;4985012;28;21014;-76
2022/12/19 07:48:27;;;;;;;48.67;25.33;;;;;;;-0.29;59.18;95704.50;4984160;28;20030;-74
2022/12/19 07:50:53;;;;;;;37.22;22.85;;;;;;;-0.65;59.87;95722.31;4986310;28;20048;-73
2022/12/19 07:53:18;;;;;;;35.17;20.75;;;;;;;-0.40;60.21;95723.38;4981039;28;20512;-74
2022/12/19 07:55:44;;;;;;;37.03;21.00;;;;;;;-0.61;60.83;95729.56;4982393;28;20045;-75
2022/12/19 07:58:09;;;;;;;42.05;22.67;;;;;;;-0.37;59.85;95733.44;4982639;28;20132;-75
2022/12/19 08:00:35;;;;;;;46.40;28.05;;;;;;;-1.11;62.14;95733.38;4982354;28;20066;-75
2022/12/19 08:03:01;;;;;;;37.13;23.85;;;;;;;-0.99;62.08;95731.84;4980455;28;20030;-74
2022/12/19 08:05:26;;;;;;;46.80;26.33;;;;;;;-1.09;62.12;95731.38;4981822;28;20588;-76
2022/12/19 08:07:52;;;;;;;41.33;24.33;;;;;;;-1.21;63.37;95751.19;4984257;28;20634;-74
2022/12/19 08:10:18;;;;;;;46.85;25.92;;;;;;;-1.14;63.45;95733.78;4987710;28;20607;-75
2022/12/19 08:12:43;;;;;;;48.97;25.63;;;;;;;-1.09;63.93;95736.59;4985982;28;20042;-75
2022/12/19 08:15:09;;;;;;;46.42;27.25;;;;;;;-0.87;63.11;95749.56;4985399;28;20428;-74
2022/12/19 08:17:34;;;;;;;54.45;29.67;;;;;;;-1.37;64.91;95730.63;4986012;28;20076;-75
2022/12/19 08:20:00;;;;;;;43.55;27.27;;;;;;;-1.47;65.57;95743.22;4987608;28;20568;-74
2022/12/19 08:22:27;;;;;;;58.80;31.02;;;;;;;-1.42;65.96;95748.69;4985806;28;20209;-73
2022/12/19 08:24:52;;;;;;;53.40;32.10;;;;;;;-1.25;64.30;95763.03;4989682;28;20033;-74
2022/12/19 08:27:18;;;;;;;56.97;33.15;;;;;;;-1.21;64.74;95758.22;4990673;28;20049;-76
2022/12/19 08:29:43;;;;;;;58.90;32.05;;;;;;;-1.15;65.17;95758.25;4979826;28;20026;-75
2022/12/19 08:32:09;;;;;;;57.25;30.05;;;;;;;-1.23;65.29;95755.00;4989585;28;20119;-75
2022/12/19 08:34:34;;;;;;;69.35;36.00;;;;;;;-1.50;66.25;95738.38;4984779;28;20705;-75
2022/12/19 08:36:59;;;;;;;68.00;36.33;;;;;;;-1.88;67.64;95723.06;4987822;28;20054;-76
2022/12/19 08:39:25;;;;;;;71.68;36.17;;;;;;;-1.85;68.77;95756.59;5001623;28;20144;-75
2022/12/19 08:41:50;;;;;;;75.85;36.83;;;;;;;-1.67;68.91;95740.47;4989823;28;20025;-76
2022/12/19 08:44:16;;;;;;;69.57;36.35;;;;;;;-1.82;68.93;95740.56;4986055;28;20067;-75
2022/12/19 08:46:41;;;;;;;67.05;35.92;;;;;;;-1.79;69.56;95733.34;4985814;28;20049;-78
2022/12/19 08:49:06;;;;;;;77.10;37.22;;;;;;;-1.71;69.84;95744.47;4986887;28;20038;-76
2022/12/19 08:51:32;;;;;;;73.55;37.67;;;;;;;-2.13;71.84;95745.31;4982966;28;20030;-75
2022/12/19 08:53:57;;;;;;;65.65;33.88;;;;;;;-2.06;72.64;95730.53;4978137;28;20527;-77
2022/12/19 08:56:23;;;;;;;56.58;31.55;;;;;;;-1.85;72.09;95730.50;4982219;28;20505;-77
2022/12/19 08:58:50;;;;;;;60.95;31.15;;;;;;;-1.87;72.94;95711.63;4970303;28;20049;-76
2022/12/19 09:01:18;;;;;;;60.33;30.50;;;;;;;-2.00;73.91;95721.97;4981554;28;20038;-75
2022/12/19 09:03:44;;;;;;;56.47;30.23;;;;;;;-1.82;74.13;95724.91;4988896;28;20038;-75
2022/12/19 09:06:12;;;;;;;44.85;24.50;;;;;;;-2.07;73.94;95715.88;4984064;28;20053;-77
2022/12/19 09:08:39;;;;;;;49.85;23.48;;;;;;;-2.24;75.39;95729.38;4987688;28;20039;-76
2022/12/19 09:11:10;;;;;;;46.97;22.65;;;;;;;-2.01;75.45;95719.56;4988197;28;20513;-77
2022/12/19 09:13:37;;;;;;;49.92;27.15;;;;;;;-2.43;77.00;95717.75;4989784;28;20042;-75
2022/12/19 09:16:17;;;;;;;75.88;26.83;;;;;;;-2.26;77.26;95717.34;4986637;28;20033;-75
2022/12/19 09:18:44;;;;;;;47.70;28.25;;;;;;;-2.20;77.15;95684.50;4988215;28;20556;-76
2022/12/19 09:21:09;;;;;;;46.80;26.13;;;;;;;-2.11;77.01;95703.41;4988982;28;20034;-76
2022/12/19 09:23:35;;;;;;;48.53;25.50;;;;;;;-2.22;77.42;95686.47;4988656;28;20026;-75
2022/12/19 09:26:03;;;;;;;48.25;25.75;;;;;;;-1.95;77.26;95698.72;4986704;28;20040;-75
2022/12/19 09:28:29;;;;;;;47.90;25.80;;;;;;;-1.97;77.68;95690.28;4989760;28;20428;-76
2022/12/19 09:31:00;;;;;;;51.58;26.40;;;;;;;-2.21;78.63;95664.63;4987010;28;20054;-75
2022/12/19 09:33:27;;;;;;;56.33;27.58;;;;;;;-2.42;78.48;95636.00;4990673;28;20111;-77
2022/12/19 09:35:55;;;;;;;50.25;27.20;;;;;;;-2.36;77.69;95623.03;4990125;28;20380;-76
2022/12/19 09:38:21;;;;;;;50.72;25.55;;;;;;;-2.13;77.74;95661.88;4992755;28;20042;-76
2022/12/19 09:40:53;;;;;;;51.60;24.27;;;;;;;-2.45;79.06;95657.22;4989989;28;20061;-75
2022/12/19 09:43:49;;;;;;;62.03;28.77;;;;;;;-2.45;79.34;95649.41;4991037;28;20678;-78
2022/12/19 09:46:43;;;;;;;60.15;28.80;;;;;;;-2.26;78.83;95643.53;4992952;28;20033;-77
2022/12/19 09:49:12;;;;;;;63.40;26.85;;;;;;;-2.09;79.24;95672.72;4980590;28;20038;-76
2022/12/19 09:51:57;;;;;;;55.33;29.20;;;;;;;-2.26;79.51;95659.19;4992465;28;20084;-77
2022/12/19 09:54:31;;;;;;;54.35;28.33;;;;;;;-2.18;79.68;95660.84;4988635;28;20123;-75
2022/12/19 09:57:00;;;;;;;53.30;28.92;;;;;;;-2.14;79.87;95647.22;5002432;28;20026;-76
2022/12/19 09:59:31;;;;;;;61.25;28.40;;;;;;;-2.01;79.20;95644.75;4989319;28;20046;-77
2022/12/19 10:01:56;;;;;;;54.72;28.40;;;;;;;-1.90;79.48;95654.63;4984910;28;20031;-75
2022/12/19 10:04:25;;;;;;;51.60;27.67;;;;;;;-2.05;79.91;95648.72;4990693;28;20464;-75
2022/12/19 10:06:51;;;;;;;50.90;27.13;;;;;;;-2.07;80.25;95642.88;4992265;28;20037;-77
2022/12/19 10:09:20;;;;;;;54.78;28.13;;;;;;;-1.98;80.62;95649.56;4987970;28;20477;-75
2022/12/19 10:12:04;;;;;;;55.17;27.75;;;;;;;-1.71;80.44;95641.91;4986391;28;20032;-76
2022/12/19 10:14:44;;;;;;;57.00;27.83;;;;;;;-1.90;79.68;95612.13;4986714;28;20602;-75
2022/12/19 10:17:28;;;;;;;57.40;29.52;;;;;;;-1.67;79.53;95632.69;4991932;28;20389;-76
2022/12/19 10:20:18;;;;;;;48.15;27.25;;;;;;;-1.92;80.06;95635.75;4988143;28;20045;-75
2022/12/19 10:23:15;;;;;;;52.92;27.27;;;;;;;-1.83;80.26;95625.97;4987988;28;20061;-77
2022/12/19 10:26:15;;;;;;;56.63;29.60;;;;;;;-1.86;80.48;95621.97;4988071;28;20378;-75
2022/12/19 10:29:02;;;;;;;47.72;25.52;;;;;;;-1.93;80.68;95608.06;4983444;28;20943;-77
2022/12/19 10:31:44;;;;;;;54.22;26.88;;;;;;;-1.87;80.86;95596.06;5003414;28;20049;-75
2022/12/19 10:34:18;;;;;;;49.08;26.23;;;;;;;-1.79;79.99;95589.88;4988890;28;20500;-75
2022/12/19 10:36:50;;;;;;;55.03;27.15;;;;;;;-1.85;79.80;95576.59;5007457;28;20061;-76
2022/12/19 10:39:46;;;;;;;50.42;25.90;;;;;;;-1.74;80.21;95605.75;4989077;28;20021;-75
2022/12/19 10:42:39;;;;;;;51.40;26.27;;;;;;;-1.65;79.34;95601.97;4986471;28;20492;-75
2022/12/19 10:45:13;;;;;;;53.70;27.58;;;;;;;-1.70;79.48;95586.13;4992972;28;20440;-75
2022/12/19 10:47:39;;;;;;;55.10;28.20;;;;;;;-1.64;79.31;95593.97;5004207;28;20050;-75
2022/12/19 10:50:05;;;;;;;52.30;27.70;;;;;;;-1.60;79.46;95599.59;5006526;28;20110;-75
2022/12/19 10:52:46;;;;;;;53.95;28.08;;;;;;;-1.67;79.02;95598.78;4993451;28;20070;-74
2022/12/19 10:55:37;;;;;;;47.80;25.73;;;;;;;-1.54;78.95;95589.19;4989051;28;20038;-74
2022/12/19 10:58:21;;;;;;;53.17;28.13;;;;;;;-1.50;78.47;95592.22;4992691;28;20037;-77
2022/12/19 11:01:16;;;;;;;49.70;26.60;;;;;;;-1.56;78.63;95593.03;4991072;28;20446;-74
2022/12/19 11:03:45;;;;;;;48.90;27.48;;;;;;;-1.73;78.96;95594.31;4990328;28;20046;-75
2022/12/19 11:06:48;;;;;;;51.85;26.58;;;;;;;-1.45;78.98;95590.63;4991029;28;20026;-75
2022/12/19 11:09:28;;;;;;;46.58;25.85;;;;;;;-1.50;78.76;95600.06;4947100;28;20023;-77
2022/12/19 11:12:07;;;;;;;56.05;27.52;;;;;;;-1.48;78.78;95587.63;4981720;28;20030;-76
2022/12/19 11:14:34;;;;;;;50.47;27.85;;;;;;;-1.66;79.11;95598.59;4986693;28;20606;-77
2022/12/19 11:16:59;;;;;;;45.05;25.35;;;;;;;-1.74;79.35;95579.66;4985481;28;20306;-74
2022/12/19 11:19:38;;;;;;;47.38;25.42;;;;;;;-1.54;78.73;95577.97;4980960;28;20042;-76
2022/12/19 11:22:05;;;;;;;49.95;27.88;;;;;;;-1.59;78.98;95585.56;4982484;28;20050;-75
2022/12/19 11:24:38;;;;;;;47.63;25.88;;;;;;;-1.53;79.10;95587.41;4983393;28;20042;-74
2022/12/19 11:27:29;;;;;;;50.55;25.63;;;;;;;-1.51;78.98;95577.59;4986478;28;20037;-74
2022/12/19 11:29:59;;;;;;;41.03;22.80;;;;;;;-1.44;78.58;95560.94;4990828;28;20337;-75
2022/12/19 11:32:35;;;;;;;46.45;24.95;;;;;;;-1.34;78.24;95586.66;4988116;28;20033;-76
2022/12/19 11:35:14;;;;;;;42.63;25.15;;;;;;;-1.28;78.87;95582.47;4985326;28;20119;-75
2022/12/19 11:37:48;;;;;;;44.22;23.88;;;;;;;-1.18;78.04;95585.53;4983465;28;20125;-74
2022/12/19 11:40:27;;;;;;;51.05;25.90;;;;;;;-1.25;78.32;95575.03;4984995;28;20149;-77